Luban — 5VCN9 — position and weather

sailwx.info

Track history (hours):
 
Tides and Currents Weather Stations Pressure Air Temp Water Temp Dewpoint Dewpoint Depression Visibility Wind Speed Wind Dir Waves Ship Positions

Luban

Last reported at 2018-Apr-30 09:35 UTC. Time now 2018-May-21 10:53 UTC.
Position N 31°14' E 029°49'.
Warning: this ship's position is 21 days out of date.

Length 82 m; draft 4 m.

Type: Cargo ship. MMSI: 671443000.

Date/timePositionNaut miles runAvg speedWind from/ knotsBaromVisibWave heightAir tempDewpointWater temp
2018-Apr-30 09:35N 31°14' E 029°49'2 9.6
2018-Apr-30 09:25N 31°15' E 029°50'79 9.4
2018-Apr-30 01:03N 32°01' E 031°04'1 9.6
2018-Apr-30 00:59N 32°02' E 031°05'6 9.4
2018-Apr-30 00:18N 32°06' E 031°11'3 9.1
2018-Apr-29 23:59N 32°08' E 031°14'4 9.1
2018-Apr-29 23:31N 32°10' E 031°18'5 9.2
2018-Apr-29 23:00N 32°13' E 031°22'5 9.5
2018-Apr-29 22:30N 32°16' E 031°26'5 9.5
2018-Apr-29 21:59N 32°20' E 031°30'4 9.6
2018-Apr-29 21:31N 32°23' E 031°34'5 9.3
2018-Apr-29 21:00N 32°27' E 031°37'5 9.1
2018-Apr-29 20:31N 32°30' E 031°41'13 9.3
2018-Apr-29 19:05N 32°40' E 031°52'2 9.4
2018-Apr-29 18:50N 32°42' E 031°53'3 9.5
2018-Apr-29 18:30N 32°44' E 031°56'5 9.6
2018-Apr-29 18:00N 32°48' E 031°59'5 9.9
2018-Apr-29 17:31N 32°52' E 032°03'10 9.7
2018-Apr-29 16:28N 32°59' E 032°11'4 9.1
2018-Apr-29 16:00N 33°01' E 032°16'7 8.4
2018-Apr-29 15:08N 33°05' E 032°23'2 9.0
2018-Apr-29 14:56N 33°04' E 032°25'4 8.9
2018-Apr-29 14:31N 33°02' E 032°29'4 8.7
2018-Apr-29 14:01N 33°01' E 032°34'4 8.4
2018-Apr-29 13:30N 33°03' E 032°38'4 8.7
2018-Apr-29 13:01N 33°06' E 032°42'4 8.6
2018-Apr-29 12:30N 33°09' E 032°46'4 8.8
2018-Apr-29 12:01N 33°12' E 032°49'5 8.7
2018-Apr-29 11:30N 33°15' E 032°54'4 8.8
2018-Apr-29 10:59N 33°17' E 032°58'4 8.9
2018-Apr-29 10:31N 33°20' E 033°02'4 8.9
2018-Apr-29 10:00N 33°22' E 033°07'4 8.7
2018-Apr-29 09:31N 33°24' E 033°11'4 8.7
2018-Apr-29 09:00N 33°27' E 033°16'4 8.9
2018-Apr-29 08:30N 33°29' E 033°20'  
Track history (hours):
 
Tides and Currents Weather Stations Pressure Air Temp Water Temp Dewpoint Dewpoint Depression Visibility Wind Speed Wind Dir Waves Ship Positions

Luban

Last reported at 2018-Apr-30 09:35 UTC. Time now 2018-May-21 10:53 UTC.
Position N 31°14' E 029°49'.
Warning: this ship's position is 21 days out of date.

Length 82 m; draft 4 m.

Type: Cargo ship. MMSI: 671443000.

Date/timePositionNaut miles runAvg speedWind from/ knotsBaromVisibWave heightAir tempDewpointWater temp
2018-Apr-30 09:35N 31°14' E 029°49'2 9.6
2018-Apr-30 09:25N 31°15' E 029°50'79 9.4
2018-Apr-30 01:03N 32°01' E 031°04'1 9.6
2018-Apr-30 00:59N 32°02' E 031°05'6 9.4
2018-Apr-30 00:18N 32°06' E 031°11'3 9.1
2018-Apr-29 23:59N 32°08' E 031°14'4 9.1
2018-Apr-29 23:31N 32°10' E 031°18'5 9.2
2018-Apr-29 23:00N 32°13' E 031°22'5 9.5
2018-Apr-29 22:30N 32°16' E 031°26'5 9.5
2018-Apr-29 21:59N 32°20' E 031°30'4 9.6
2018-Apr-29 21:31N 32°23' E 031°34'5 9.3
2018-Apr-29 21:00N 32°27' E 031°37'5 9.1
2018-Apr-29 20:31N 32°30' E 031°41'13 9.3
2018-Apr-29 19:05N 32°40' E 031°52'2 9.4
2018-Apr-29 18:50N 32°42' E 031°53'3 9.5
2018-Apr-29 18:30N 32°44' E 031°56'5 9.6
2018-Apr-29 18:00N 32°48' E 031°59'5 9.9
2018-Apr-29 17:31N 32°52' E 032°03'10 9.7
2018-Apr-29 16:28N 32°59' E 032°11'4 9.1
2018-Apr-29 16:00N 33°01' E 032°16'7 8.4
2018-Apr-29 15:08N 33°05' E 032°23'2 9.0
2018-Apr-29 14:56N 33°04' E 032°25'4 8.9
2018-Apr-29 14:31N 33°02' E 032°29'4 8.7
2018-Apr-29 14:01N 33°01' E 032°34'4 8.4
2018-Apr-29 13:30N 33°03' E 032°38'4 8.7
2018-Apr-29 13:01N 33°06' E 032°42'4 8.6
2018-Apr-29 12:30N 33°09' E 032°46'4 8.8
2018-Apr-29 12:01N 33°12' E 032°49'5 8.7
2018-Apr-29 11:30N 33°15' E 032°54'4 8.8
2018-Apr-29 10:59N 33°17' E 032°58'4 8.9
2018-Apr-29 10:31N 33°20' E 033°02'4 8.9
2018-Apr-29 10:00N 33°22' E 033°07'4 8.7
2018-Apr-29 09:31N 33°24' E 033°11'4 8.7
2018-Apr-29 09:00N 33°27' E 033°16'4 8.9
2018-Apr-29 08:30N 33°29' E 033°20'  

Dump ship's entire track history